createdAt,value
2018-01-22T00:02:03.823Z,2.67
2018-01-22T00:04:33.145Z,3.10
2018-01-22T00:07:01.845Z,3.12
2018-01-22T00:09:35.765Z,3.00
2018-01-22T00:12:07.035Z,2.80
2018-01-22T00:14:38.805Z,3.03
2018-01-22T00:17:13.055Z,2.60
2018-01-22T00:19:42.874Z,2.70
2018-01-22T00:22:16.610Z,2.80
2018-01-22T00:24:46.355Z,2.70
2018-01-22T00:27:15.364Z,3.05
2018-01-22T00:29:44.405Z,3.30
2018-01-22T00:32:12.955Z,2.40
2018-01-22T00:34:49.624Z,2.50
2018-01-22T00:37:22.145Z,3.10
2018-01-22T00:39:52.154Z,3.35
2018-01-22T00:42:22.897Z,3.20
2018-01-22T00:44:54.945Z,2.60
2018-01-22T00:47:26.984Z,2.53
2018-01-22T00:49:58.465Z,4.37
2018-01-22T00:52:30.744Z,2.15
2018-01-22T00:55:03.683Z,1.87
2018-01-22T00:57:36.064Z,2.37
2018-01-22T01:00:04.515Z,2.10
2018-01-22T01:02:33.220Z,2.40
2018-01-22T01:05:05.555Z,2.50
2018-01-22T01:07:36.466Z,2.75
2018-01-22T01:10:09.163Z,2.40
2018-01-22T01:12:49.515Z,2.70
2018-01-22T01:15:20.235Z,2.67
2018-01-22T01:17:51.245Z,2.90
2018-01-22T01:20:23.924Z,2.83
2018-01-22T01:22:56.335Z,2.83
2018-01-22T01:25:25.434Z,2.70
2018-01-22T01:27:55.995Z,2.35
2018-01-22T01:30:28.375Z,2.47
2018-01-22T01:33:01.325Z,2.67
2018-01-22T01:35:33.505Z,2.60
2018-01-22T01:38:06.944Z,2.62
2018-01-22T01:40:35.814Z,2.17
2018-01-22T01:43:04.564Z,1.95
2018-01-22T01:45:34.081Z,2.70
2018-01-22T01:48:07.354Z,2.40
2018-01-22T01:50:36.914Z,2.30
2018-01-22T01:53:09.054Z,1.90
2018-01-22T01:55:41.504Z,1.70
2018-01-22T01:58:13.894Z,1.73
2018-01-22T02:00:43.444Z,1.75
2018-01-22T02:03:13.044Z,1.95
2018-01-22T02:05:42.925Z,1.65
2018-01-22T02:08:13.605Z,2.12
2018-01-22T02:10:45.065Z,1.70
2018-01-22T02:13:14.445Z,1.35
2018-01-22T02:15:43.012Z,1.70
2018-01-22T02:18:12.906Z,1.70
2018-01-22T02:20:42.671Z,1.45
2018-01-22T02:23:13.545Z,1.65
2018-01-22T02:25:46.694Z,1.40
2018-01-22T02:28:19.144Z,1.87
2018-01-22T02:30:50.236Z,1.58
2018-01-22T02:33:22.844Z,2.05
2018-01-22T02:35:54.915Z,1.80
2018-01-22T02:38:27.224Z,1.70
2018-01-22T02:40:59.155Z,1.50
2018-01-22T02:43:28.035Z,1.62
2018-01-22T02:45:56.715Z,1.42
2018-01-22T02:48:29.065Z,1.95
2018-01-22T02:51:02.535Z,2.05
2018-01-22T02:53:32.105Z,1.60
2018-01-22T02:56:04.526Z,1.73
2018-01-22T02:58:37.704Z,1.85
2018-01-22T03:01:09.265Z,1.75
2018-01-22T03:03:40.214Z,1.87
2018-01-22T03:06:12.573Z,1.50
2018-01-22T03:08:43.605Z,1.73
2018-01-22T03:11:15.734Z,1.75
2018-01-22T03:13:45.265Z,1.83
2018-01-22T03:16:17.168Z,1.73
2018-01-22T03:18:47.904Z,1.87
2018-01-22T03:21:16.145Z,1.90
2018-01-22T03:23:48.985Z,1.50
2018-01-22T03:26:20.124Z,1.62
2018-01-22T03:28:52.284Z,1.70
2018-01-22T03:31:24.366Z,1.73
2018-01-22T03:33:53.004Z,1.65
2018-01-22T03:36:21.879Z,1.50
2018-01-22T03:38:53.454Z,1.52
2018-01-22T03:41:22.844Z,1.58
2018-01-22T03:43:52.044Z,1.75
2018-01-22T03:46:22.955Z,1.60
2018-01-22T03:48:51.346Z,1.30
2018-01-22T03:51:24.854Z,1.20
2018-01-22T03:53:54.145Z,1.52
2018-01-22T03:56:23.925Z,1.55
2018-01-22T03:58:53.575Z,2.58
2018-01-22T04:01:29.554Z,1.50
2018-01-22T04:03:58.225Z,1.00
2018-01-22T04:06:30.595Z,1.60
2018-01-22T04:09:03.715Z,1.20
2018-01-22T04:11:32.363Z,1.40
2018-01-22T04:14:04.735Z,1.67
2018-01-22T04:16:37.865Z,1.48
2018-01-22T04:19:09.314Z,1.37
2018-01-22T04:21:39.224Z,1.10
2018-01-22T04:24:07.664Z,1.30
2018-01-22T04:26:36.865Z,1.27
2018-01-22T04:29:11.095Z,1.45
2018-01-22T04:31:42.885Z,1.20
2018-01-22T04:34:12.464Z,1.00
2018-01-22T04:36:41.134Z,1.10
2018-01-22T04:39:14.774Z,1.20
2018-01-22T04:41:46.805Z,1.00
2018-01-22T04:44:17.960Z,1.80
2018-01-22T04:46:50.165Z,1.67
2018-01-22T04:49:19.574Z,1.33
2018-01-22T04:51:48.064Z,1.10
2018-01-22T04:54:16.305Z,1.48
2018-01-22T04:56:44.985Z,1.40
2018-01-22T04:59:17.285Z,1.23
2018-01-22T05:01:47.284Z,1.65
2018-01-22T05:04:19.524Z,1.45
2018-01-22T05:06:54.645Z,1.55
2018-01-22T05:09:27.054Z,1.20
2018-01-22T05:12:02.565Z,2.03
2018-01-22T05:14:35.645Z,1.20
2018-01-22T05:17:07.435Z,1.58
2018-01-22T05:19:38.605Z,1.10
2018-01-22T05:22:11.304Z,2.60
2018-01-22T05:24:44.406Z,1.40
2018-01-22T05:27:13.714Z,1.83
2018-01-22T05:29:43.965Z,0.95
2018-01-22T05:32:12.404Z,1.60
2018-01-22T05:34:41.754Z,1.27
2018-01-22T05:37:14.059Z,1.10
2018-01-22T05:39:45.514Z,0.95
2018-01-22T05:42:14.765Z,1.00
2018-01-22T05:44:45.165Z,1.05
2018-01-22T05:47:23.521Z,1.08
2018-01-22T05:49:56.244Z,1.10
2018-01-22T05:52:28.575Z,1.15
2018-01-22T05:54:57.235Z,0.90
2018-01-22T05:57:26.784Z,1.40
2018-01-22T05:59:57.525Z,1.20
2018-01-22T06:02:30.498Z,1.20
2018-01-22T06:05:01.395Z,1.00
2018-01-22T06:07:29.984Z,1.37
2018-01-22T06:10:01.334Z,1.30
2018-01-22T06:12:33.344Z,1.70
2018-01-22T06:15:05.915Z,1.10
2018-01-22T06:17:41.273Z,1.10
2018-01-22T06:20:12.148Z,1.35
2018-01-22T06:22:44.905Z,1.60
2018-01-22T06:25:13.795Z,2.60
2018-01-22T06:27:42.824Z,1.73
2018-01-22T06:30:13.345Z,1.50
2018-01-22T06:32:42.074Z,2.45
2018-01-22T06:35:10.994Z,2.37
2018-01-22T06:37:41.446Z,2.20
2018-01-22T06:40:11.260Z,2.60
2018-01-22T06:42:40.084Z,2.70
2018-01-22T06:45:13.684Z,1.92
2018-01-22T06:47:44.453Z,2.80
2018-01-22T06:50:19.777Z,2.70
2018-01-22T06:52:52.364Z,3.05
2018-01-22T06:55:25.011Z,3.53
2018-01-22T06:57:54.694Z,3.47
2018-01-22T07:00:25.545Z,2.70
2018-01-22T07:02:54.431Z,2.92
2018-01-22T07:05:22.864Z,4.37
2018-01-22T07:07:55.495Z,4.35
2018-01-22T07:10:27.564Z,4.20
2018-01-22T07:12:56.115Z,4.55
2018-01-22T07:15:24.297Z,4.50
2018-01-22T07:17:52.537Z,4.10
2018-01-22T07:20:20.849Z,3.95
2018-01-22T07:22:53.835Z,4.37
2018-01-22T07:25:24.315Z,2.80
2018-01-22T07:27:54.365Z,1.75
2018-01-22T07:30:25.214Z,2.60
2018-01-22T07:32:54.325Z,2.22
2018-01-22T07:35:22.629Z,2.20
2018-01-22T07:37:52.285Z,2.87
2018-01-22T07:40:20.984Z,2.97
2018-01-22T07:42:50.514Z,2.67
2018-01-22T07:45:19.766Z,3.42
2018-01-22T07:47:48.415Z,3.17
2018-01-22T07:50:16.915Z,1.83
2018-01-22T07:52:45.554Z,2.03
2018-01-22T07:55:15.380Z,2.12
2018-01-22T07:57:44.654Z,2.40
2018-01-22T08:00:14.904Z,2.53
2018-01-22T08:02:44.414Z,2.62
2018-01-22T08:05:12.865Z,2.65
2018-01-22T08:07:43.643Z,2.25
2018-01-22T08:10:12.424Z,2.10
2018-01-22T08:12:41.186Z,2.00
2018-01-22T08:15:10.664Z,2.20
2018-01-22T08:17:39.396Z,2.00
2018-01-22T08:20:08.773Z,2.35
2018-01-22T08:22:38.205Z,2.55
2018-01-22T08:25:10.040Z,2.35
2018-01-22T08:27:39.785Z,3.28
2018-01-22T08:30:07.836Z,3.30
2018-01-22T08:32:36.556Z,3.00
2018-01-22T08:35:05.414Z,2.65
2018-01-22T08:37:33.978Z,3.12
2018-01-22T08:40:06.565Z,2.75
2018-01-22T08:42:37.365Z,2.10
2018-01-22T08:45:06.154Z,4.50
2018-01-22T08:47:34.834Z,2.58
2018-01-22T08:50:05.934Z,2.28
2018-01-22T08:52:35.939Z,2.80
2018-01-22T08:55:05.664Z,3.22
2018-01-22T08:57:35.543Z,3.97
2018-01-22T09:00:05.035Z,1.98
2018-01-22T09:02:33.714Z,1.90
2018-01-22T09:05:02.296Z,1.77
2018-01-22T09:07:30.795Z,2.20
2018-01-22T09:10:02.214Z,2.47
2018-01-22T09:16:09.811Z,1.85
2018-01-22T09:18:39.924Z,2.20
2018-01-22T09:21:08.526Z,2.37
2018-01-22T09:23:37.015Z,2.15
2018-01-22T09:26:05.514Z,1.70
2018-01-22T09:28:34.704Z,2.40
2018-01-22T09:31:04.235Z,4.57
2018-01-22T09:33:32.804Z,1.85
2018-01-22T09:36:02.104Z,1.70
2018-01-22T09:38:31.835Z,1.80
2018-01-22T09:41:00.915Z,1.92
2018-01-22T09:43:30.724Z,1.98
2018-01-22T09:46:00.375Z,4.78
2018-01-22T09:48:29.948Z,2.70
2018-01-22T09:50:58.865Z,3.75
2018-01-22T09:53:27.804Z,2.40
2018-01-22T09:55:57.094Z,2.65
2018-01-22T09:58:26.705Z,2.45
2018-01-22T10:00:55.705Z,2.20
2018-01-22T10:03:25.345Z,2.72
2018-01-22T10:05:54.535Z,3.40
2018-01-22T10:08:23.005Z,2.67
2018-01-22T10:10:52.455Z,2.00
2018-01-22T10:13:21.224Z,1.70
2018-01-22T10:15:49.865Z,3.45
2018-01-22T10:18:19.175Z,2.30
2018-01-22T10:20:48.607Z,5.00
2018-01-22T10:23:17.195Z,2.10
2018-01-22T10:25:46.774Z,1.70
2018-01-22T10:28:16.475Z,2.05
2018-01-22T10:30:46.056Z,2.30
2018-01-22T10:33:15.114Z,2.60
2018-01-22T10:35:43.915Z,2.30
2018-01-22T10:38:12.539Z,3.90
2018-01-22T10:40:41.844Z,2.42
2018-01-22T10:43:11.745Z,2.35
2018-01-22T10:45:40.556Z,2.80
2018-01-22T10:48:09.095Z,2.50
2018-01-22T10:50:38.195Z,2.47
2018-01-22T10:53:07.205Z,2.53
2018-01-22T10:55:36.754Z,2.00
2018-01-22T10:58:05.639Z,2.90
2018-01-22T11:00:34.664Z,2.50
2018-01-22T11:03:05.755Z,5.00
2018-01-22T11:05:34.535Z,3.40
2018-01-22T11:08:04.016Z,2.60
2018-01-22T11:10:32.625Z,3.20
2018-01-22T11:13:01.999Z,3.10
2018-01-22T11:15:37.241Z,1.87
2018-01-22T11:18:06.914Z,1.98
2018-01-22T11:20:35.664Z,1.80
2018-01-22T11:23:04.545Z,2.35
2018-01-22T11:25:34.915Z,2.00
2018-01-22T11:28:04.016Z,1.83
2018-01-22T11:30:33.035Z,2.80
2018-01-22T11:33:01.891Z,1.65
2018-01-22T11:35:30.735Z,2.37
2018-01-22T11:38:00.505Z,2.35
2018-01-22T11:40:29.178Z,1.80
2018-01-22T11:42:58.165Z,2.47
2018-01-22T11:45:27.404Z,3.30
2018-01-22T11:47:57.125Z,1.70
2018-01-22T11:50:26.195Z,4.45
2018-01-22T11:52:55.375Z,5.40
2018-01-22T11:55:24.044Z,2.28
2018-01-22T11:57:53.634Z,1.67
2018-01-22T12:00:22.815Z,1.67
2018-01-22T12:02:52.369Z,2.08
2018-01-22T12:05:21.731Z,2.78
2018-01-22T12:07:51.485Z,2.47
2018-01-22T12:10:20.636Z,2.20
2018-01-22T12:12:49.764Z,2.53
2018-01-22T12:15:18.584Z,2.50
2018-01-22T12:17:47.735Z,2.92
2018-01-22T12:20:16.403Z,2.40
2018-01-22T12:22:45.055Z,3.45
2018-01-22T12:25:13.644Z,3.28
2018-01-22T12:27:43.135Z,2.20
2018-01-22T12:30:15.654Z,2.60
2018-01-22T12:32:44.104Z,2.75
2018-01-22T12:35:13.635Z,3.00
2018-01-22T12:37:42.344Z,3.15
2018-01-22T12:40:11.677Z,3.85
2018-01-22T12:42:40.264Z,3.87
2018-01-22T12:45:09.824Z,3.10
2018-01-22T12:47:38.335Z,3.17
2018-01-22T12:50:07.534Z,2.95
2018-01-22T12:52:36.534Z,2.90
2018-01-22T12:55:05.485Z,2.95
2018-01-22T12:57:34.426Z,3.10
2018-01-22T13:00:03.984Z,3.70
2018-01-22T13:02:32.385Z,3.72
2018-01-22T13:05:03.448Z,3.10
2018-01-22T13:07:35.114Z,3.95
2018-01-22T13:10:04.615Z,3.70
2018-01-22T13:12:34.165Z,3.08
2018-01-22T13:15:02.844Z,3.92
2018-01-22T13:17:31.634Z,3.28
2018-01-22T13:20:01.523Z,5.90
2018-01-22T13:22:31.480Z,3.25
2018-01-22T13:25:00.124Z,10.45
2018-01-22T13:27:29.886Z,5.32
2018-01-22T13:29:58.504Z,5.07
2018-01-22T13:32:27.804Z,5.22
2018-01-22T13:34:57.434Z,3.80
2018-01-22T13:37:26.483Z,4.30
2018-01-22T13:40:01.254Z,5.18
2018-01-22T13:42:30.715Z,5.25
2018-01-22T13:44:59.365Z,5.12
2018-01-22T13:47:28.234Z,3.70
2018-01-22T13:49:58.935Z,4.78
2018-01-22T13:52:28.693Z,4.55
2018-01-22T13:54:57.725Z,4.12
2018-01-22T13:57:26.495Z,5.47
2018-01-22T13:59:55.564Z,5.35
2018-01-22T14:02:24.704Z,4.05
2018-01-22T14:04:53.465Z,3.67
2018-01-22T14:07:21.805Z,4.20
2018-01-22T14:09:50.725Z,4.25
2018-01-22T14:12:19.545Z,4.70
2018-01-22T14:14:48.545Z,3.70
2018-01-22T14:17:18.095Z,3.50
2018-01-22T14:19:48.005Z,5.72
2018-01-22T14:22:16.566Z,4.40
2018-01-22T14:24:45.410Z,4.35
2018-01-22T14:27:14.137Z,6.72
2018-01-22T14:29:43.125Z,4.12
2018-01-22T14:32:12.634Z,2.70
2018-01-22T14:34:42.214Z,4.32
2018-01-22T14:37:10.890Z,6.45
2018-01-22T14:39:39.735Z,4.70
2018-01-22T14:42:09.263Z,4.62
2018-01-22T14:44:39.424Z,3.50
2018-01-22T14:47:07.916Z,2.35
2018-01-22T14:49:37.114Z,3.00
2018-01-22T14:52:06.395Z,2.90
2018-01-22T14:54:34.981Z,3.47
2018-01-22T14:57:04.054Z,2.53
2018-01-22T14:59:32.675Z,6.82
2018-01-22T15:02:02.495Z,4.15
2018-01-22T15:04:31.145Z,5.03
2018-01-22T15:07:01.368Z,2.75
2018-01-22T15:09:29.816Z,2.80
2018-01-22T15:11:58.705Z,2.90
2018-01-22T15:14:27.795Z,3.25
2018-01-22T15:16:56.805Z,2.75
2018-01-22T15:19:26.005Z,4.82
2018-01-22T15:21:55.065Z,3.10
2018-01-22T15:24:24.384Z,3.30
2018-01-22T15:26:53.726Z,3.08
2018-01-22T15:29:22.305Z,3.72
2018-01-22T15:31:51.688Z,3.67
2018-01-22T15:34:21.347Z,4.00
2018-01-22T15:36:50.305Z,3.70
2018-01-22T15:39:20.305Z,4.28
2018-01-22T15:41:48.945Z,3.78
2018-01-22T15:44:17.306Z,3.37
2018-01-22T15:46:46.055Z,3.53
2018-01-22T15:49:14.565Z,4.40
2018-01-22T15:51:44.651Z,3.20
2018-01-22T15:54:13.867Z,3.60
2018-01-22T15:56:42.785Z,3.67
2018-01-22T15:59:11.264Z,4.62
2018-01-22T16:01:40.264Z,5.22
2018-01-22T16:04:09.415Z,5.30
2018-01-22T16:06:38.088Z,6.50
2018-01-22T16:09:07.375Z,5.62
2018-01-22T16:11:36.776Z,5.25
2018-01-22T16:14:06.195Z,4.47
2018-01-22T16:16:35.144Z,5.55
2018-01-22T16:19:05.265Z,13.38
2018-01-22T16:21:34.095Z,5.18
2018-01-22T16:24:04.004Z,4.62
2018-01-22T16:26:33.344Z,5.22
2018-01-22T16:29:03.514Z,4.93
2018-01-22T16:31:33.217Z,4.18
2018-01-22T16:34:03.004Z,4.75
2018-01-22T16:36:32.633Z,4.10
2018-01-22T16:39:01.565Z,5.15
2018-01-22T16:41:30.964Z,3.22
2018-01-22T16:44:01.774Z,2.35
2018-01-22T16:46:31.236Z,3.40
2018-01-22T16:49:01.375Z,3.12
2018-01-22T16:51:29.994Z,5.80
2018-01-22T16:53:59.045Z,2.37
2018-01-22T16:56:28.724Z,1.70
2018-01-22T16:58:56.974Z,3.55
2018-01-22T17:01:25.799Z,2.65
2018-01-22T17:03:54.605Z,3.00
2018-01-22T17:06:23.915Z,4.25
2018-01-22T17:08:53.914Z,2.35
2018-01-22T17:11:23.310Z,3.60
2018-01-22T17:13:52.434Z,3.15
2018-01-22T17:16:21.864Z,2.97
2018-01-22T17:18:51.516Z,4.30
2018-01-22T17:21:25.361Z,2.85
2018-01-22T17:23:54.004Z,3.90
2018-01-22T17:26:22.864Z,3.60
2018-01-22T17:28:52.595Z,3.05
2018-01-22T17:31:22.684Z,4.35
2018-01-22T17:33:51.415Z,3.70
2018-01-22T17:36:20.485Z,3.92
2018-01-22T17:38:49.077Z,3.90
2018-01-22T17:41:17.885Z,5.90
2018-01-22T17:43:46.525Z,4.85
2018-01-22T17:46:14.995Z,5.47
2018-01-22T17:48:44.256Z,6.35
2018-01-22T17:51:13.084Z,5.50
2018-01-22T17:53:42.214Z,3.90
2018-01-22T17:56:12.144Z,5.12
2018-01-22T17:58:40.934Z,2.80
2018-01-22T18:01:09.484Z,2.90
2018-01-22T18:03:39.215Z,5.32
2018-01-22T18:06:08.038Z,5.40
2018-01-22T18:08:38.885Z,4.87
2018-01-22T18:11:09.945Z,6.28
2018-01-22T18:13:43.095Z,4.97
2018-01-22T18:16:15.535Z,5.70
2018-01-22T18:18:43.866Z,6.07
2018-01-22T18:21:17.354Z,6.62
2018-01-22T18:23:51.195Z,3.30
2018-01-22T18:26:24.095Z,4.53
2018-01-22T18:28:53.294Z,6.60
2018-01-22T18:31:22.095Z,4.37
2018-01-22T18:33:50.612Z,5.35
2018-01-22T18:36:19.407Z,4.87
2018-01-22T18:38:47.875Z,4.60
2018-01-22T18:41:22.975Z,4.37
2018-01-22T18:43:51.506Z,3.60
2018-01-22T18:46:22.116Z,2.95
2018-01-22T18:48:50.945Z,3.90
2018-01-22T18:51:20.494Z,2.40
2018-01-22T18:53:52.234Z,1.77
2018-01-22T18:56:20.785Z,1.90
2018-01-22T18:58:51.144Z,2.47
2018-01-22T19:01:23.414Z,1.95
2018-01-22T19:03:52.234Z,2.30
2018-01-22T19:06:24.855Z,2.28
2018-01-22T19:08:54.284Z,3.35
2018-01-22T19:11:23.205Z,2.67
2018-01-22T19:13:52.495Z,3.40
2018-01-22T19:16:21.065Z,3.00
2018-01-22T19:18:49.814Z,2.28
2018-01-22T19:21:19.875Z,3.60
2018-01-22T19:23:48.335Z,2.12
2018-01-22T19:26:17.325Z,4.47
2018-01-22T19:28:46.145Z,2.83
2018-01-22T19:31:16.765Z,2.97
2018-01-22T19:33:46.239Z,4.68
2018-01-22T19:36:18.804Z,5.12
2018-01-22T19:38:50.102Z,4.78
2018-01-22T19:41:18.836Z,4.35
2018-01-22T19:43:49.754Z,4.55
2018-01-22T19:46:19.925Z,3.45
2018-01-22T19:48:50.134Z,2.28
2018-01-22T19:51:21.466Z,2.30
2018-01-22T19:53:52.635Z,1.40
2018-01-22T19:56:20.906Z,1.10
2018-01-22T19:58:50.625Z,1.10
2018-01-22T20:01:20.644Z,0.82
2018-01-22T20:03:49.345Z,0.95
2018-01-22T20:06:20.775Z,1.20
2018-01-22T20:08:51.725Z,0.80
2018-01-22T20:11:24.444Z,1.50
2018-01-22T20:13:57.016Z,1.10
2018-01-22T20:16:29.384Z,1.23
2018-01-22T20:18:59.605Z,0.90
2018-01-22T20:21:28.606Z,1.90
2018-01-22T20:23:59.704Z,1.50
2018-01-22T20:26:28.525Z,2.47
2018-01-22T20:28:58.098Z,2.78
2018-01-22T20:31:28.044Z,4.43
2018-01-22T20:33:56.545Z,3.90
2018-01-22T20:36:25.776Z,3.53
2018-01-22T20:38:54.624Z,4.22
2018-01-22T20:41:26.094Z,4.32
2018-01-22T20:43:59.604Z,4.75
2018-01-22T20:46:28.425Z,3.60
2018-01-22T20:48:57.145Z,5.20
2018-01-22T20:51:25.876Z,5.15
2018-01-22T20:53:54.645Z,7.70
2018-01-22T20:56:23.315Z,7.40
2018-01-22T20:58:55.275Z,7.05
2018-01-22T21:01:25.596Z,3.92
2018-01-22T21:03:55.015Z,4.50
2018-01-22T21:06:24.457Z,5.15
2018-01-22T21:08:56.874Z,7.20
2018-01-22T21:11:29.284Z,5.35
2018-01-22T21:14:01.814Z,5.30
2018-01-22T21:16:33.205Z,4.70
2018-01-22T21:19:01.925Z,4.53
2018-01-22T21:21:33.724Z,4.30
2018-01-22T21:24:03.356Z,6.07
2018-01-22T21:26:32.376Z,5.65
2018-01-22T21:29:01.325Z,4.82
2018-01-22T21:31:30.124Z,5.55
2018-01-22T21:34:05.685Z,5.40
2018-01-22T21:36:34.404Z,5.55
2018-01-22T21:39:09.998Z,5.45
2018-01-22T21:41:38.494Z,5.50
2018-01-22T21:44:07.137Z,4.97
2018-01-22T21:46:36.735Z,4.72
2018-01-22T21:49:06.086Z,4.20
2018-01-22T21:51:34.785Z,4.40
2018-01-22T21:54:07.065Z,3.70
2018-01-22T21:56:37.565Z,4.80
2018-01-22T21:59:09.985Z,4.10
2018-01-22T22:01:38.435Z,3.00
2018-01-22T22:04:08.675Z,2.45
2018-01-22T22:06:37.085Z,1.80
2018-01-22T22:09:08.654Z,1.60
2018-01-22T22:11:37.244Z,1.30
2018-01-22T22:14:05.915Z,1.50
2018-01-22T22:16:34.435Z,3.80
2018-01-22T22:19:02.875Z,2.17
2018-01-22T22:21:31.465Z,2.65
2018-01-22T22:24:01.014Z,2.45
2018-01-22T22:26:31.375Z,2.78
2018-01-22T22:29:01.005Z,1.62
2018-01-22T22:31:29.745Z,2.28
2018-01-22T22:33:58.685Z,2.47
2018-01-22T22:36:27.544Z,2.55
2018-01-22T22:38:57.125Z,3.12
2018-01-22T22:41:30.144Z,2.40
2018-01-22T22:43:59.675Z,1.73
2018-01-22T22:46:28.346Z,2.00
2018-01-22T22:49:00.454Z,1.50
2018-01-22T22:51:32.934Z,1.75
2018-01-22T22:54:01.565Z,2.30
2018-01-22T22:56:30.905Z,2.65
2018-01-22T22:59:01.644Z,1.17
2018-01-22T23:01:32.684Z,1.10
2018-01-22T23:04:01.305Z,3.05
2018-01-22T23:06:30.704Z,2.05
2018-01-22T23:08:59.355Z,1.60
2018-01-22T23:11:28.703Z,1.15
2018-01-22T23:14:00.325Z,1.80
2018-01-22T23:16:28.814Z,1.73
2018-01-22T23:18:57.304Z,2.45
2018-01-22T23:21:26.194Z,2.15
2018-01-22T23:23:54.691Z,1.20
2018-01-22T23:26:23.752Z,1.00
2018-01-22T23:28:52.111Z,1.02
2018-01-22T23:31:20.411Z,1.23
2018-01-22T23:33:48.751Z,0.90
2018-01-22T23:36:16.956Z,0.93
2018-01-22T23:38:45.294Z,1.60
2018-01-22T23:41:13.512Z,1.90
2018-01-22T23:43:41.972Z,1.10
2018-01-22T23:46:10.373Z,1.40
2018-01-22T23:48:38.751Z,1.50
2018-01-22T23:51:07.755Z,1.50
2018-01-22T23:53:35.891Z,1.80
2018-01-22T23:56:04.031Z,1.00
2018-01-22T23:58:32.472Z,1.60
